createdAt,value
2022-10-22T00:00:04.997Z,80.70
2022-10-22T00:02:31.784Z,80.70
2022-10-22T00:04:58.537Z,80.80
2022-10-22T00:07:25.212Z,80.80
2022-10-22T00:09:51.901Z,80.80
2022-10-22T00:12:18.592Z,80.90
2022-10-22T00:14:45.390Z,81.10
2022-10-22T00:17:12.152Z,81.10
2022-10-22T00:19:39.384Z,81.20
2022-10-22T00:22:06.794Z,81.20
2022-10-22T00:24:34.768Z,81.20
2022-10-22T00:27:02.554Z,81.20
2022-10-22T00:29:29.368Z,81.40
2022-10-22T00:34:23.479Z,81.50
2022-10-22T00:36:50.263Z,81.50
2022-10-22T00:39:18.540Z,81.70
2022-10-22T00:41:47.041Z,81.80
2022-10-22T00:44:51.319Z,81.80
2022-10-22T00:47:18.978Z,81.90
2022-10-22T00:49:45.778Z,81.80
2022-10-22T00:52:12.658Z,81.70
2022-10-22T00:54:39.345Z,81.60
2022-10-22T00:57:05.995Z,81.70
2022-10-22T00:59:32.628Z,81.70
2022-10-22T01:01:59.305Z,81.70
2022-10-22T01:04:26.183Z,81.60
2022-10-22T01:06:52.941Z,81.70
2022-10-22T01:09:54.042Z,81.80
2022-10-22T01:12:42.476Z,82.00
2022-10-22T01:15:28.900Z,82.10
2022-10-22T01:18:10.930Z,81.90
2022-10-22T01:21:05.653Z,82.00
2022-10-22T01:24:02.688Z,82.10
2022-10-22T01:26:57.689Z,82.00
2022-10-22T01:29:27.946Z,82.00
2022-10-22T01:32:02.865Z,81.90
2022-10-22T01:34:29.706Z,82.00
2022-10-22T01:36:58.412Z,81.90
2022-10-22T01:39:25.557Z,81.90
2022-10-22T01:41:54.713Z,81.90
2022-10-22T01:44:28.856Z,82.10
2022-10-22T01:47:07.544Z,82.20
2022-10-22T01:49:56.130Z,82.30
2022-10-22T01:52:29.635Z,82.30
2022-10-22T01:55:14.473Z,82.30
2022-10-22T01:57:44.996Z,82.30
2022-10-22T02:00:13.806Z,82.30
2022-10-22T02:02:43.511Z,82.20
2022-10-22T02:05:15.024Z,82.20
2022-10-22T02:07:47.320Z,82.20
2022-10-22T02:10:14.289Z,82.10
2022-10-22T02:12:41.388Z,82.10
2022-10-22T02:15:08.640Z,82.00
2022-10-22T02:17:35.424Z,81.90
2022-10-22T02:20:06.548Z,81.90
2022-10-22T02:22:33.198Z,81.90
2022-10-22T02:24:59.805Z,81.80
2022-10-22T02:27:40.500Z,81.60
2022-10-22T02:30:09.356Z,81.70
2022-10-22T02:32:42.253Z,81.70
2022-10-22T02:35:12.244Z,81.70
2022-10-22T02:37:38.951Z,81.70
2022-10-22T02:40:06.003Z,81.90
2022-10-22T02:42:32.668Z,81.90
2022-10-22T02:44:59.418Z,82.00
2022-10-22T02:47:28.974Z,82.10
2022-10-22T02:49:55.708Z,82.30
2022-10-22T02:52:22.398Z,82.40
2022-10-22T02:54:49.071Z,82.50
2022-10-22T02:59:48.221Z,82.60
2022-10-22T03:02:22.332Z,82.60
2022-10-22T03:04:48.986Z,82.70
2022-10-22T03:07:15.600Z,82.70
2022-10-22T03:09:42.373Z,82.70
2022-10-22T03:12:09.107Z,82.70
2022-10-22T03:14:38.496Z,82.80
2022-10-22T03:17:05.237Z,82.80
2022-10-22T03:19:32.088Z,82.80
2022-10-22T03:22:21.233Z,82.90
2022-10-22T03:24:49.204Z,83.00
2022-10-22T03:27:16.567Z,83.10
2022-10-22T06:03:01.061Z,82.50
2022-10-22T06:05:27.833Z,82.20
2022-10-22T06:07:54.710Z,82.20
2022-10-22T06:10:21.541Z,82.20
2022-10-22T06:12:50.296Z,82.20
2022-10-22T06:15:17.833Z,82.10
2022-10-22T06:17:45.227Z,82.00
2022-10-22T06:20:12.271Z,81.90
2022-10-22T06:22:39.659Z,81.70
2022-10-22T06:25:07.129Z,81.60
2022-10-22T06:27:34.574Z,81.40
2022-10-22T06:30:01.329Z,81.10
2022-10-22T06:32:28.082Z,81.00
2022-10-22T06:34:55.833Z,80.80
2022-10-22T06:37:22.482Z,80.70
2022-10-22T06:39:52.645Z,80.70
2022-10-22T06:42:19.348Z,80.60
2022-10-22T06:44:46.123Z,80.50
2022-10-22T06:47:23.011Z,80.50
2022-10-22T06:49:50.007Z,80.20
2022-10-22T06:52:19.922Z,80.10
2022-10-22T06:54:46.828Z,79.90
2022-10-22T06:57:13.624Z,79.90
2022-10-22T06:59:40.356Z,79.90
2022-10-22T07:02:06.997Z,79.80
2022-10-22T07:04:33.857Z,79.70
2022-10-22T07:07:00.730Z,79.80
2022-10-22T07:09:27.703Z,79.80
2022-10-22T07:11:54.459Z,79.90
2022-10-22T07:14:21.235Z,79.90
2022-10-22T07:16:50.329Z,79.90
2022-10-22T07:19:17.327Z,79.90
2022-10-22T07:21:44.943Z,80.00
2022-10-22T07:24:12.334Z,80.10
2022-10-22T07:26:39.214Z,80.10
2022-10-22T07:29:06.187Z,80.10
2022-10-22T07:31:32.880Z,80.10
2022-10-22T07:33:59.738Z,80.20
2022-10-22T07:36:26.555Z,80.30
2022-10-22T07:38:55.271Z,80.30
2022-10-22T07:41:23.054Z,80.30
2022-10-22T07:43:49.908Z,80.20
2022-10-22T07:46:19.768Z,80.30
2022-10-22T07:48:46.497Z,80.10
2022-10-22T07:51:13.628Z,79.90
2022-10-22T07:53:40.272Z,79.60
2022-10-22T07:56:07.337Z,79.30
2022-10-22T07:58:34.000Z,78.60
2022-10-22T08:01:02.821Z,78.10
2022-10-22T08:03:29.614Z,77.90
2022-10-22T08:05:56.570Z,77.80
2022-10-22T08:08:29.730Z,77.70
2022-10-22T08:10:58.013Z,77.80
2022-10-22T08:13:24.790Z,77.90
2022-10-22T08:15:53.615Z,78.00
2022-10-22T08:18:23.303Z,78.10
2022-10-22T08:21:22.877Z,78.30
2022-10-22T08:26:51.923Z,78.10
2022-10-22T08:29:19.017Z,77.20
2022-10-22T08:31:45.637Z,77.60
2022-10-22T08:34:12.301Z,77.20
2022-10-22T08:37:01.196Z,76.90
2022-10-22T08:39:36.371Z,76.10
2022-10-22T08:42:14.488Z,76.30
2022-10-22T08:45:18.686Z,76.00
2022-10-22T08:48:03.734Z,76.10
2022-10-22T08:50:44.073Z,76.20
2022-10-22T08:53:17.577Z,75.70
2022-10-22T08:55:44.778Z,76.10
2022-10-22T08:58:28.225Z,75.90
2022-10-22T09:01:28.667Z,75.50
2022-10-22T09:04:05.722Z,72.40
2022-10-22T09:06:33.231Z,72.70
2022-10-22T09:09:00.337Z,72.10
2022-10-22T09:11:34.076Z,70.90
2022-10-22T09:14:00.906Z,69.40
2022-10-22T09:16:50.369Z,68.90
2022-10-22T09:19:17.036Z,67.30
2022-10-22T09:21:56.296Z,66.60
2022-10-22T09:24:48.898Z,65.90
2022-10-22T09:27:20.194Z,65.20
2022-10-22T09:29:50.471Z,66.10
2022-10-22T09:32:17.624Z,66.00
2022-10-22T09:34:47.934Z,66.50
2022-10-22T09:37:17.583Z,66.70
2022-10-22T09:39:45.748Z,66.00
2022-10-22T09:42:18.256Z,65.20
2022-10-22T09:44:47.753Z,64.10
2022-10-22T09:48:00.497Z,63.10
2022-10-22T09:50:49.453Z,59.90
2022-10-22T09:53:38.331Z,58.70
2022-10-22T09:56:16.113Z,57.60
2022-10-22T09:58:44.080Z,58.00
2022-10-22T10:01:33.312Z,59.30
2022-10-22T10:04:09.891Z,58.00
2022-10-22T10:06:41.785Z,59.10
2022-10-22T10:09:16.779Z,60.00
2022-10-22T10:11:46.543Z,60.70
2022-10-22T10:14:32.043Z,61.40
2022-10-22T10:17:19.244Z,61.10
2022-10-22T10:20:27.680Z,60.80
2022-10-22T10:23:15.815Z,60.30
2022-10-22T10:25:53.375Z,59.60
2022-10-22T10:28:53.270Z,60.10
2022-10-22T10:31:41.654Z,60.30
2022-10-22T10:34:27.290Z,59.50
2022-10-22T10:37:15.096Z,57.50
2022-10-22T10:39:57.413Z,56.80
2022-10-22T10:42:33.330Z,53.30
2022-10-22T10:45:18.875Z,53.20
2022-10-22T10:48:04.121Z,51.40
2022-10-22T10:50:36.106Z,52.20
2022-10-22T10:53:20.608Z,52.20
2022-10-22T10:56:15.037Z,52.60
2022-10-22T10:59:17.649Z,51.90
2022-10-22T11:01:44.331Z,53.00
2022-10-22T11:04:25.951Z,53.00
2022-10-22T11:06:54.550Z,53.10
2022-10-22T11:09:29.872Z,53.80
2022-10-22T11:12:05.332Z,53.80
2022-10-22T11:15:04.474Z,54.90
2022-10-22T11:17:42.232Z,54.60
2022-10-22T11:23:45.276Z,52.60
2022-10-22T11:26:17.693Z,53.10
2022-10-22T11:28:47.912Z,51.80
2022-10-22T11:31:16.143Z,52.40
2022-10-22T11:33:52.699Z,53.10
2022-10-22T11:36:24.132Z,53.50
2022-10-22T11:38:51.577Z,54.00
2022-10-22T11:41:19.618Z,54.50
2022-10-22T11:44:10.209Z,55.10
2022-10-22T11:46:46.793Z,55.60
2022-10-22T11:49:13.692Z,56.30
2022-10-22T11:51:41.253Z,56.40
2022-10-22T11:54:26.753Z,56.70
2022-10-22T11:56:53.661Z,57.40
2022-10-22T11:59:46.480Z,55.30
2022-10-22T12:02:27.974Z,50.80
2022-10-22T12:05:20.008Z,50.90
2022-10-22T12:07:57.208Z,50.70
2022-10-22T12:10:28.628Z,48.10
2022-10-22T12:13:11.084Z,47.50
2022-10-22T12:15:46.620Z,45.70
2022-10-22T12:20:41.062Z,46.20
2022-10-22T12:23:12.714Z,45.80
2022-10-22T12:25:39.353Z,44.90
2022-10-22T12:28:11.466Z,44.70
2022-10-22T12:30:38.250Z,44.40
2022-10-22T12:33:07.189Z,44.10
2022-10-22T12:35:35.913Z,43.10
2022-10-22T12:38:05.370Z,42.70
2022-10-22T12:40:35.185Z,42.10
2022-10-22T12:43:07.643Z,41.40
2022-10-22T12:45:34.538Z,42.10
2022-10-22T12:48:38.711Z,43.00
2022-10-22T12:51:05.683Z,42.20
2022-10-22T12:53:33.964Z,42.30
2022-10-22T12:56:03.758Z,41.90
2022-10-22T12:58:42.824Z,41.60
2022-10-22T13:01:11.594Z,42.00
2022-10-22T13:03:51.519Z,42.20
2022-10-22T13:06:21.196Z,42.10
2022-10-22T13:09:00.092Z,41.90
2022-10-22T13:11:41.378Z,40.50
2022-10-22T13:14:35.133Z,41.90
2022-10-22T13:17:06.902Z,43.00
2022-10-22T13:20:01.543Z,43.10
2022-10-22T13:22:38.372Z,42.60
2022-10-22T13:25:17.586Z,41.80
2022-10-22T13:27:48.743Z,41.60
2022-10-22T13:30:37.195Z,41.60
2022-10-22T13:33:04.697Z,41.80
2022-10-22T13:35:33.981Z,42.50
2022-10-22T13:38:00.623Z,43.70
2022-10-22T13:40:27.372Z,45.60
2022-10-22T13:42:54.226Z,45.50
2022-10-22T13:45:21.042Z,45.10
2022-10-22T13:47:53.812Z,44.60
2022-10-22T13:50:20.913Z,44.30
2022-10-22T13:52:50.900Z,44.20
2022-10-22T13:55:28.930Z,43.60
2022-10-22T13:58:04.008Z,43.40
2022-10-22T14:00:30.805Z,43.00
2022-10-22T14:02:57.950Z,42.90
2022-10-22T14:05:24.611Z,42.40
2022-10-22T14:07:51.607Z,42.20
2022-10-22T14:10:23.937Z,42.20
2022-10-22T14:12:53.477Z,42.80
2022-10-22T14:15:33.663Z,43.90
2022-10-22T14:18:00.409Z,45.40
2022-10-22T14:20:29.252Z,46.10
2022-10-22T14:22:57.323Z,46.70
2022-10-22T14:25:25.018Z,47.60
2022-10-22T14:27:51.948Z,48.20
2022-10-22T14:30:20.573Z,48.60
2022-10-22T14:32:47.454Z,49.00
2022-10-22T14:35:15.182Z,49.40
2022-10-22T14:37:41.966Z,49.80
2022-10-22T14:40:09.413Z,50.10
2022-10-22T14:42:39.472Z,50.00
2022-10-22T14:45:07.408Z,50.30
2022-10-22T14:47:34.094Z,50.60
2022-10-22T14:50:01.013Z,50.90
2022-10-22T14:52:27.767Z,51.10
2022-10-22T14:54:54.406Z,51.40
2022-10-22T14:57:21.056Z,51.70
2022-10-22T14:59:47.783Z,52.00
2022-10-22T15:02:14.410Z,52.30
2022-10-22T15:04:41.138Z,52.30
2022-10-22T15:07:07.812Z,52.50
2022-10-22T15:09:34.517Z,52.60
2022-10-22T15:12:01.477Z,52.80
2022-10-22T15:14:28.120Z,52.80
2022-10-22T15:16:54.989Z,52.90
2022-10-22T15:19:21.784Z,53.00
2022-10-22T15:21:48.478Z,53.10
2022-10-22T15:24:15.155Z,53.40
2022-10-22T15:26:44.211Z,53.50
2022-10-22T15:29:13.733Z,53.70
2022-10-22T15:31:51.517Z,53.90
2022-10-22T15:34:28.560Z,54.20
2022-10-22T15:36:56.466Z,54.50
2022-10-22T15:39:23.620Z,54.60
2022-10-22T15:41:50.818Z,54.80
2022-10-22T15:44:22.653Z,55.20
2022-10-22T15:46:51.526Z,55.50
2022-10-22T15:49:18.751Z,55.50
2022-10-22T15:51:45.542Z,55.70
2022-10-22T15:54:17.465Z,56.20
2022-10-22T15:56:44.266Z,56.30
2022-10-22T15:59:11.484Z,56.60
2022-10-22T16:01:38.494Z,56.80
2022-10-22T16:04:05.707Z,56.90
2022-10-22T16:06:37.091Z,57.20
2022-10-22T16:09:05.887Z,57.60
2022-10-22T16:11:32.643Z,58.00
2022-10-22T16:13:59.670Z,58.20
2022-10-22T16:16:27.589Z,58.30
2022-10-22T16:18:54.314Z,58.60
2022-10-22T16:21:21.524Z,58.80
2022-10-22T16:23:48.897Z,59.00
2022-10-22T16:26:16.217Z,59.30
2022-10-22T16:28:43.215Z,59.50
2022-10-22T16:31:11.388Z,59.70
2022-10-22T16:33:41.560Z,59.90
2022-10-22T16:36:12.669Z,60.20
2022-10-22T16:38:40.480Z,60.40
2022-10-22T19:04:37.251Z,68.70
2022-10-22T19:07:04.941Z,68.60
2022-10-22T19:09:31.762Z,68.70
2022-10-22T19:11:59.059Z,68.90
2022-10-22T19:14:25.793Z,69.10
2022-10-22T19:16:52.447Z,69.20
2022-10-22T19:19:19.864Z,69.40
2022-10-22T19:21:46.700Z,69.50
2022-10-22T19:24:14.831Z,69.50
2022-10-22T19:26:41.549Z,69.60
2022-10-22T19:29:08.655Z,69.80
2022-10-22T19:31:35.384Z,69.80
2022-10-22T19:34:02.225Z,70.00
2022-10-22T19:36:29.681Z,70.00
2022-10-22T19:38:56.640Z,70.10
2022-10-22T19:41:24.156Z,70.20
2022-10-22T19:43:52.010Z,70.30
2022-10-22T19:46:22.041Z,70.30
2022-10-22T19:48:48.798Z,70.40
2022-10-22T19:51:17.672Z,70.40
2022-10-22T19:53:47.163Z,70.40
2022-10-22T19:56:13.792Z,70.60
2022-10-22T19:58:40.770Z,70.60
2022-10-22T20:01:11.685Z,70.80
2022-10-22T20:03:38.717Z,70.90
2022-10-22T20:06:07.213Z,71.00
2022-10-22T20:08:37.224Z,71.00
2022-10-22T20:11:04.698Z,71.20
2022-10-22T20:13:31.608Z,71.30
2022-10-22T20:15:58.463Z,71.40
2022-10-22T20:18:25.218Z,71.40
2022-10-22T20:20:52.042Z,71.50
2022-10-22T20:23:19.220Z,71.50
2022-10-22T20:25:47.133Z,71.70
2022-10-22T20:28:14.109Z,71.70
2022-10-22T20:30:42.198Z,71.80
2022-10-22T20:33:09.026Z,71.80
2022-10-22T20:35:36.324Z,71.90
2022-10-22T20:38:04.110Z,72.00
2022-10-22T20:40:30.814Z,72.10
2022-10-22T20:42:58.155Z,72.10
2022-10-22T20:45:24.798Z,72.20
2022-10-22T20:47:58.687Z,72.20
2022-10-22T20:50:29.423Z,72.20
2022-10-22T20:52:57.617Z,72.40
2022-10-22T20:55:24.283Z,72.40
2022-10-22T20:57:50.966Z,72.40
2022-10-22T21:00:17.899Z,72.50
2022-10-22T21:02:44.613Z,72.60
2022-10-22T21:05:11.360Z,72.70
2022-10-22T21:07:38.026Z,72.70
2022-10-22T21:10:05.190Z,72.80
2022-10-22T21:12:31.968Z,73.00
2022-10-22T21:14:58.641Z,73.10
2022-10-22T21:17:25.443Z,73.20
2022-10-22T21:19:52.322Z,73.30
2022-10-22T21:22:19.155Z,73.40
2022-10-22T21:24:45.864Z,73.50
2022-10-22T21:27:12.706Z,73.60
2022-10-22T21:29:39.486Z,73.70
2022-10-22T21:32:06.203Z,73.80
2022-10-22T21:34:38.070Z,73.80
2022-10-22T21:37:05.899Z,73.90
2022-10-22T21:39:32.550Z,73.90
2022-10-22T21:41:59.200Z,74.00
2022-10-22T21:44:25.839Z,74.10
2022-10-22T21:46:52.478Z,74.20
2022-10-22T21:49:19.103Z,74.20
2022-10-22T21:51:45.732Z,74.30
2022-10-22T21:54:12.390Z,74.40
2022-10-22T21:59:09.713Z,74.60
2022-10-22T22:01:36.502Z,74.80
2022-10-22T22:04:03.219Z,74.80
2022-10-22T22:06:33.182Z,74.90
2022-10-22T22:09:00.850Z,74.90
2022-10-22T22:11:27.891Z,75.00
2022-10-22T22:13:55.197Z,75.20
2022-10-22T22:16:27.258Z,75.30
2022-10-22T22:18:56.258Z,75.30
2022-10-22T22:21:22.890Z,75.30
2022-10-22T22:23:49.908Z,75.40
2022-10-22T22:26:19.241Z,75.40
2022-10-22T22:28:45.891Z,75.50
2022-10-22T22:31:17.258Z,75.60
2022-10-22T22:33:44.090Z,75.80
2022-10-22T22:36:10.940Z,75.90
2022-10-22T22:38:37.753Z,76.00
2022-10-22T22:41:04.475Z,76.20
2022-10-22T22:43:41.310Z,76.30
2022-10-22T22:46:10.882Z,76.50
2022-10-22T22:48:37.399Z,76.60
2022-10-22T22:51:04.914Z,77.10
2022-10-22T22:53:31.708Z,76.40
2022-10-22T22:56:14.753Z,76.60
2022-10-22T22:58:41.442Z,76.80
2022-10-22T23:01:16.595Z,76.80
2022-10-22T23:03:44.096Z,76.90
2022-10-22T23:06:10.960Z,77.10
2022-10-22T23:08:37.796Z,77.30
2022-10-22T23:11:09.145Z,77.50
2022-10-22T23:13:35.966Z,77.60
2022-10-22T23:16:10.247Z,77.70
2022-10-22T23:18:36.850Z,77.90
2022-10-22T23:21:09.408Z,78.10
2022-10-22T23:23:36.006Z,78.20
2022-10-22T23:26:02.713Z,78.20
2022-10-22T23:28:29.323Z,78.40
2022-10-22T23:30:56.083Z,78.50
2022-10-22T23:33:22.650Z,78.60
2022-10-22T23:35:49.250Z,78.70
2022-10-22T23:38:15.879Z,78.70
2022-10-22T23:40:42.464Z,78.80
2022-10-22T23:43:09.026Z,78.80
2022-10-22T23:45:35.638Z,78.90
2022-10-22T23:48:02.474Z,78.80
2022-10-22T23:50:29.081Z,78.90
2022-10-22T23:52:55.675Z,78.90
2022-10-22T23:55:22.337Z,78.90
2022-10-22T23:57:48.932Z,79.00
